Time;durP1;ratioP1;P1;durP2;ratioP2;P2;SDS_P1;SDS_P2;PMS_P1;PMS_P2;Temp;Humidity;BMP_temperature;BMP_pressure;BME280_temperature;BME280_humidity;BME280_pressure;Samples;Min_cycle;Max_cycle;Signal;HPM_P1;HPM_P2
2024/02/25 00:01:08;;;;;;;;;;;17.70;67.30;;;;;;5038195;28;1288;-69
2024/02/25 00:03:34;;;;;;;;;;;17.60;67.30;;;;;;5038232;28;1650;-69
2024/02/25 00:05:59;;;;;;;;;;;17.60;67.30;;;;;;5039700;28;1976;-69
2024/02/25 00:08:25;;;;;;;;;;;17.60;67.30;;;;;;5040726;28;1307;-69
2024/02/25 00:10:50;;;;;;;;;;;17.60;67.30;;;;;;5037962;28;1281;-69
2024/02/25 00:13:16;;;;;;;;;;;17.60;67.30;;;;;;5039587;28;1453;-69
2024/02/25 00:15:41;;;;;;;;;;;17.60;67.40;;;;;;5038462;28;1185;-70
2024/02/25 00:18:07;;;;;;;;;;;17.60;67.30;;;;;;5039480;28;1619;-69
2024/02/25 00:20:32;;;;;;;;;;;17.60;67.30;;;;;;5039346;28;1415;-70
2024/02/25 00:22:58;;;;;;;;;;;17.60;67.30;;;;;;5037318;28;1378;-70
2024/02/25 00:25:23;;;;;;;;;;;17.60;67.30;;;;;;5041176;28;1967;-70
2024/02/25 00:27:48;;;;;;;;;;;17.60;67.40;;;;;;5037199;28;1475;-69
2024/02/25 00:30:14;;;;;;;;;;;17.60;67.40;;;;;;5037956;28;1280;-69
2024/02/25 00:32:39;;;;;;;;;;;17.60;67.40;;;;;;5038625;28;1534;-70
2024/02/25 00:35:05;;;;;;;;;;;17.60;67.40;;;;;;5038256;28;1601;-70
2024/02/25 00:37:31;;;;;;;;;;;17.60;67.40;;;;;;5039512;28;1438;-69
2024/02/25 00:39:56;;;;;;;;;;;17.60;67.40;;;;;;5036935;28;1513;-70
2024/02/25 00:42:22;;;;;;;;;;;17.60;67.40;;;;;;5037934;28;1304;-71
2024/02/25 00:44:48;;;;;;;;;;;17.60;67.40;;;;;;5045845;28;1383;-71
2024/02/25 00:47:14;;;;;;;;;;;17.60;67.40;;;;;;5035637;28;1961;-70
2024/02/25 00:49:43;;;;;;;;;;;17.60;67.50;;;;;;5042534;28;1448;-70
2024/02/25 00:52:08;;;;;;;;;;;17.60;67.40;;;;;;5038575;28;1601;-71
2024/02/25 00:54:34;;;;;;;;;;;17.60;67.50;;;;;;5038850;28;1659;-70
2024/02/25 00:56:59;;;;;;;;;;;17.60;67.50;;;;;;5039706;28;1372;-70
2024/02/25 00:59:25;;;;;;;;;;;17.60;67.50;;;;;;5039774;28;1573;-70
2024/02/25 01:01:50;;;;;;;;;;;17.60;67.50;;;;;;5037435;28;1422;-70
2024/02/25 01:04:18;;;;;;;;;;;17.60;67.50;;;;;;5038292;28;1459;-70
2024/02/25 01:06:43;;;;;;;;;;;17.60;67.50;;;;;;5040702;28;1906;-70
2024/02/25 01:09:10;;;;;;;;;;;17.60;67.50;;;;;;5022764;28;1366;-71
2024/02/25 01:11:36;;;;;;;;;;;17.60;67.50;;;;;;5038387;28;1618;-70
2024/02/25 01:14:02;;;;;;;;;;;17.60;67.50;;;;;;5039235;28;1231;-70
2024/02/25 01:16:27;;;;;;;;;;;17.60;67.50;;;;;;5039792;28;1557;-70
2024/02/25 01:18:53;;;;;;;;;;;17.60;67.50;;;;;;5042506;28;1458;-71
2024/02/25 01:21:18;;;;;;;;;;;17.60;67.50;;;;;;5044267;28;1521;-70
2024/02/25 01:23:44;;;;;;;;;;;17.60;67.60;;;;;;5042546;28;1140;-70
2024/02/25 01:26:10;;;;;;;;;;;17.60;67.60;;;;;;5041197;28;1961;-70
2024/02/25 01:28:36;;;;;;;;;;;17.60;67.60;;;;;;5046075;28;1740;-70
2024/02/25 01:31:01;;;;;;;;;;;17.60;67.60;;;;;;5045909;28;1491;-70
2024/02/25 01:33:27;;;;;;;;;;;17.60;67.60;;;;;;5059115;28;1371;-70
2024/02/25 01:35:52;;;;;;;;;;;17.50;67.50;;;;;;5044954;28;1021;-69
2024/02/25 01:38:18;;;;;;;;;;;17.60;67.60;;;;;;5043556;28;1482;-71
2024/02/25 01:40:43;;;;;;;;;;;17.60;67.60;;;;;;5039403;28;1565;-70
2024/02/25 01:43:09;;;;;;;;;;;17.50;67.50;;;;;;5041001;28;1430;-70
2024/02/25 01:45:35;;;;;;;;;;;17.50;66.90;;;;;;5041641;28;1898;-70
2024/02/25 01:48:01;;;;;;;;;;;17.60;67.60;;;;;;5042583;28;1467;-70
2024/02/25 01:50:27;;;;;;;;;;;17.50;67.60;;;;;;5059075;28;1669;-69
2024/02/25 01:52:54;;;;;;;;;;;17.50;67.50;;;;;;5040554;28;1623;-69
2024/02/25 01:55:22;;;;;;;;;;;17.50;67.60;;;;;;5041347;28;1320;-69
2024/02/25 01:57:48;;;;;;;;;;;17.50;67.60;;;;;;5040673;28;1510;-70
2024/02/25 02:00:16;;;;;;;;;;;17.60;67.60;;;;;;5038601;28;1359;-69
2024/02/25 02:02:41;;;;;;;;;;;17.50;67.60;;;;;;5040973;28;1207;-70
2024/02/25 02:05:08;;;;;;;;;;;17.50;67.60;;;;;;5040269;28;1246;-71
2024/02/25 02:07:33;;;;;;;;;;;17.50;67.60;;;;;;5040483;28;1913;-68
2024/02/25 02:09:59;;;;;;;;;;;17.50;67.60;;;;;;5040744;28;1309;-70
2024/02/25 02:12:24;;;;;;;;;;;17.50;67.60;;;;;;5040745;28;1654;-71
2024/02/25 02:14:50;;;;;;;;;;;17.50;67.60;;;;;;5040659;28;1333;-71
2024/02/25 02:17:15;;;;;;;;;;;17.50;67.60;;;;;;5040769;28;1554;-70
2024/02/25 02:19:44;;;;;;;;;;;17.50;67.60;;;;;;5039959;28;1315;-71
2024/02/25 02:22:10;;;;;;;;;;;17.50;67.60;;;;;;5040826;28;1268;-72
2024/02/25 02:24:35;;;;;;;;;;;17.50;67.60;;;;;;5041690;28;1491;-71
2024/02/25 02:27:01;;;;;;;;;;;17.50;67.60;;;;;;5038684;28;1898;-71
2024/02/25 02:29:27;;;;;;;;;;;17.60;67.60;;;;;;5041725;28;1439;-70
2024/02/25 02:31:56;;;;;;;;;;;17.60;67.50;;;;;;5041232;28;1341;-70
2024/02/25 02:34:22;;;;;;;;;;;17.60;67.50;;;;;;5038493;28;1376;-71
2024/02/25 02:36:49;;;;;;;;;;;17.60;67.40;;;;;;5039107;28;1017;-71
2024/02/25 02:39:14;;;;;;;;;;;17.60;67.30;;;;;;5037327;28;1335;-70
2024/02/25 02:41:40;;;;;;;;;;;17.60;67.30;;;;;;5040757;28;1397;-70
2024/02/25 02:44:06;;;;;;;;;;;17.60;67.20;;;;;;5040011;28;1348;-71
2024/02/25 02:46:37;;;;;;;;;;;17.60;67.20;;;;;;5042289;28;1906;-70
2024/02/25 02:49:02;;;;;;;;;;;17.60;67.10;;;;;;5041607;28;1135;-69
2024/02/25 02:51:28;;;;;;;;;;;17.60;67.10;;;;;;5044079;28;1814;-69
2024/02/25 02:53:53;;;;;;;;;;;17.60;67.10;;;;;;5043487;28;1601;-70
2024/02/25 02:56:19;;;;;;;;;;;17.70;67.20;;;;;;5041102;28;994;-69
2024/02/25 02:58:48;;;;;;;;;;;17.70;67.20;;;;;;5040980;28;1249;-71
2024/02/25 03:01:14;;;;;;;;;;;17.70;67.10;;;;;;5038819;28;1387;-70
2024/02/25 03:03:40;;;;;;;;;;;17.70;67.10;;;;;;5039426;28;1346;-70
2024/02/25 03:06:05;;;;;;;;;;;17.70;67.10;;;;;;5036580;28;1991;-71
2024/02/25 03:08:31;;;;;;;;;;;17.70;67.10;;;;;;5041955;28;1005;-69
2024/02/25 03:10:56;;;;;;;;;;;17.70;67.00;;;;;;5039306;28;1296;-69
2024/02/25 03:13:24;;;;;;;;;;;17.70;67.00;;;;;;5042653;28;859;-70
2024/02/25 03:15:50;;;;;;;;;;;17.70;66.90;;;;;;5041753;28;1172;-69
2024/02/25 03:18:15;;;;;;;;;;;17.70;67.00;;;;;;5042910;28;847;-69
2024/02/25 03:20:43;;;;;;;;;;;17.70;66.90;;;;;;5039003;28;1380;-68
2024/02/25 03:23:09;;;;;;;;;;;17.70;66.90;;;;;;5039242;28;1175;-68
2024/02/25 03:25:34;;;;;;;;;;;17.70;66.90;;;;;;5041962;28;1932;-69
2024/02/25 03:28:00;;;;;;;;;;;17.70;66.90;;;;;;5040858;28;1591;-69
2024/02/25 03:30:25;;;;;;;;;;;17.70;66.90;;;;;;5041830;28;1232;-70
2024/02/25 03:32:51;;;;;;;;;;;17.70;66.90;;;;;;5042139;28;910;-69
2024/02/25 03:35:16;;;;;;;;;;;17.80;67.00;;;;;;5039612;28;1143;-69
2024/02/25 03:37:44;;;;;;;;;;;17.70;66.80;;;;;;5043228;28;1366;-70
2024/02/25 03:40:10;;;;;;;;;;;17.70;66.80;;;;;;5039786;28;1232;-69
2024/02/25 03:42:35;;;;;;;;;;;17.70;66.80;;;;;;5040197;28;1777;-69
2024/02/25 03:45:01;;;;;;;;;;;17.80;66.90;;;;;;5038359;28;1580;-69
2024/02/25 03:47:26;;;;;;;;;;;17.80;66.90;;;;;;5039906;28;1894;-69
2024/02/25 03:49:52;;;;;;;;;;;17.80;66.90;;;;;;5040803;28;1253;-68
2024/02/25 03:52:17;;;;;;;;;;;17.80;66.90;;;;;;5042967;28;1629;-69
2024/02/25 03:54:47;;;;;;;;;;;17.70;66.80;;;;;;5043165;28;1655;-69
2024/02/25 03:57:12;;;;;;;;;;;17.80;66.90;;;;;;5041752;28;1496;-72
2024/02/25 03:59:37;;;;;;;;;;;17.70;66.80;;;;;;5041697;28;1658;-68
2024/02/25 04:02:03;;;;;;;;;;;17.80;66.90;;;;;;5038550;28;1352;-69
2024/02/25 04:04:29;;;;;;;;;;;17.70;66.80;;;;;;5037828;28;1531;-70
2024/02/25 04:06:54;;;;;;;;;;;17.80;66.90;;;;;;5038721;28;1902;-71
2024/02/25 04:09:21;;;;;;;;;;;17.70;66.80;;;;;;5037723;28;1388;-69
2024/02/25 04:11:47;;;;;;;;;;;17.70;66.90;;;;;;5046559;28;1891;-70
2024/02/25 04:14:12;;;;;;;;;;;17.70;66.80;;;;;;5038535;28;1278;-69
2024/02/25 04:16:38;;;;;;;;;;;17.70;66.90;;;;;;5039759;28;1624;-69
2024/02/25 04:19:04;;;;;;;;;;;17.80;66.90;;;;;;5039780;28;1443;-68
2024/02/25 04:21:29;;;;;;;;;;;17.70;66.90;;;;;;5038983;28;1694;-69
2024/02/25 04:23:55;;;;;;;;;;;17.70;66.90;;;;;;5039710;28;1242;-69
2024/02/25 04:26:20;;;;;;;;;;;17.70;66.90;;;;;;5036302;28;1969;-69
2024/02/25 04:28:45;;;;;;;;;;;17.70;66.90;;;;;;5041763;28;1476;-70
2024/02/25 04:31:11;;;;;;;;;;;17.70;66.90;;;;;;5036757;28;1573;-69
2024/02/25 04:33:36;;;;;;;;;;;17.70;66.90;;;;;;5036653;28;1450;-69
2024/02/25 04:36:02;;;;;;;;;;;17.70;66.90;;;;;;5037154;28;1295;-70
2024/02/25 04:38:28;;;;;;;;;;;17.70;66.90;;;;;;5038695;28;1476;-70
2024/02/25 04:40:55;;;;;;;;;;;17.70;66.90;;;;;;5038115;28;1351;-71
2024/02/25 04:43:21;;;;;;;;;;;17.70;67.00;;;;;;5037583;28;1468;-68
2024/02/25 04:45:46;;;;;;;;;;;17.70;67.00;;;;;;5040049;28;1957;-69
2024/02/25 04:48:12;;;;;;;;;;;17.70;67.80;;;;;;5036461;28;1633;-70
2024/02/25 04:50:37;;;;;;;;;;;17.70;67.00;;;;;;5038539;28;1450;-70
2024/02/25 04:53:03;;;;;;;;;;;17.70;67.00;;;;;;5038133;28;1150;-71
2024/02/25 04:55:28;;;;;;;;;;;17.70;67.00;;;;;;5049974;28;1600;-71
2024/02/25 04:57:54;;;;;;;;;;;17.70;67.00;;;;;;5043601;28;1253;-72
2024/02/25 05:00:19;;;;;;;;;;;17.70;67.00;;;;;;5047737;28;1411;-71
2024/02/25 05:02:45;;;;;;;;;;;17.70;67.10;;;;;;5040756;28;1215;-71
2024/02/25 05:05:10;;;;;;;;;;;17.70;67.10;;;;;;5041883;28;1053;-70
2024/02/25 05:07:35;;;;;;;;;;;17.70;67.10;;;;;;5045664;28;1918;-71
2024/02/25 05:10:01;;;;;;;;;;;17.70;67.10;;;;;;5042855;28;1163;-71
2024/02/25 05:12:26;;;;;;;;;;;17.70;67.10;;;;;;5041319;28;1415;-70
2024/02/25 05:14:52;;;;;;;;;;;17.70;67.00;;;;;;5042482;28;1334;-72
2024/02/25 05:17:18;;;;;;;;;;;17.70;67.00;;;;;;5050097;28;1502;-71
2024/02/25 05:19:43;;;;;;;;;;;17.70;66.90;;;;;;5044003;28;1573;-71
2024/02/25 05:22:08;;;;;;;;;;;17.80;66.90;;;;;;5043985;28;1555;-69
2024/02/25 05:24:35;;;;;;;;;;;17.80;66.80;;;;;;5044123;28;1390;-72
2024/02/25 05:27:00;;;;;;;;;;;17.80;66.70;;;;;;5044352;28;1906;-71
2024/02/25 05:29:26;;;;;;;;;;;17.80;66.60;;;;;;5042842;28;1368;-71
2024/02/25 05:31:51;;;;;;;;;;;17.90;66.60;;;;;;5042147;28;1442;-69
2024/02/25 05:34:17;;;;;;;;;;;17.90;66.50;;;;;;5040561;28;1628;-71
2024/02/25 05:36:42;;;;;;;;;;;17.90;66.30;;;;;;5040368;28;1381;-69
2024/02/25 05:39:08;;;;;;;;;;;17.90;66.20;;;;;;5043614;28;1478;-71
2024/02/25 05:41:34;;;;;;;;;;;17.90;66.20;;;;;;5039977;28;1665;-70
2024/02/25 05:44:00;;;;;;;;;;;18.00;66.10;;;;;;5041369;28;1664;-70
2024/02/25 05:46:25;;;;;;;;;;;18.00;66.00;;;;;;5039402;28;1910;-71
2024/02/25 05:48:51;;;;;;;;;;;18.00;66.00;;;;;;5050024;28;1270;-71
2024/02/25 05:51:18;;;;;;;;;;;18.00;65.90;;;;;;5040093;28;1565;-70
2024/02/25 05:53:44;;;;;;;;;;;18.00;65.90;;;;;;5041389;28;1298;-71
2024/02/25 05:56:09;;;;;;;;;;;18.00;65.80;;;;;;5042045;28;1503;-71
2024/02/25 05:58:35;;;;;;;;;;;18.10;65.80;;;;;;5040538;28;1511;-71
2024/02/25 06:01:01;;;;;;;;;;;18.10;65.80;;;;;;5078863;28;1579;-71
2024/02/25 06:03:26;;;;;;;;;;;18.10;65.80;;;;;;5044058;28;1386;-72
2024/02/25 06:05:56;;;;;;;;;;;18.10;65.70;;;;;;5040503;28;1980;-71
2024/02/25 06:08:22;;;;;;;;;;;18.10;65.70;;;;;;5039158;28;1288;-70
2024/02/25 06:10:48;;;;;;;;;;;18.10;65.70;;;;;;5040674;28;1268;-70
2024/02/25 06:13:13;;;;;;;;;;;18.10;65.70;;;;;;5040019;28;966;-70
2024/02/25 06:15:39;;;;;;;;;;;18.10;65.70;;;;;;5039411;28;1457;-70
2024/02/25 06:18:04;;;;;;;;;;;18.10;65.60;;;;;;5038851;28;1173;-70
2024/02/25 06:20:30;;;;;;;;;;;18.10;65.60;;;;;;5042285;28;1312;-70
2024/02/25 06:22:56;;;;;;;;;;;18.10;65.50;;;;;;5039924;28;1399;-70
2024/02/25 06:25:21;;;;;;;;;;;18.10;65.50;;;;;;5041068;28;1536;-70
2024/02/25 06:27:46;;;;;;;;;;;18.10;65.50;;;;;;5039865;28;1910;-70
2024/02/25 06:30:12;;;;;;;;;;;18.10;65.50;;;;;;5040381;28;1549;-70
2024/02/25 06:32:38;;;;;;;;;;;18.10;65.50;;;;;;5043239;28;1544;-70
2024/02/25 06:35:04;;;;;;;;;;;18.10;65.40;;;;;;5037192;28;1578;-70
2024/02/25 06:37:31;;;;;;;;;;;18.20;65.50;;;;;;5043062;28;1587;-70
2024/02/25 06:39:56;;;;;;;;;;;18.10;65.40;;;;;;5041476;28;1450;-70
2024/02/25 06:42:22;;;;;;;;;;;18.20;65.40;;;;;;5035724;28;1298;-70
2024/02/25 06:44:47;;;;;;;;;;;18.20;65.40;;;;;;5042479;28;1246;-70
2024/02/25 06:47:12;;;;;;;;;;;18.20;65.40;;;;;;5042755;28;1958;-69
2024/02/25 06:49:41;;;;;;;;;;;18.20;65.40;;;;;;5043082;28;1334;-69
2024/02/25 06:52:07;;;;;;;;;;;18.20;65.40;;;;;;5041222;28;1591;-69
2024/02/25 06:54:33;;;;;;;;;;;18.20;65.40;;;;;;5038303;28;1331;-71
2024/02/25 06:56:58;;;;;;;;;;;18.20;66.10;;;;;;5039498;28;1325;-69
2024/02/25 06:59:24;;;;;;;;;;;18.20;65.30;;;;;;5040494;28;1360;-71
2024/02/25 07:01:49;;;;;;;;;;;18.20;65.30;;;;;;5040096;28;1244;-69
2024/02/25 07:04:15;;;;;;;;;;;18.20;65.40;;;;;;5041081;28;1470;-69
2024/02/25 07:06:41;;;;;;;;;;;18.20;65.30;;;;;;5037205;28;1902;-69
2024/02/25 07:09:06;;;;;;;;;;;18.20;65.40;;;;;;5040075;28;1117;-69
2024/02/25 07:11:32;;;;;;;;;;;18.20;65.30;;;;;;5039576;28;1629;-71
2024/02/25 07:13:57;;;;;;;;;;;18.20;65.40;;;;;;5025046;28;1498;-69
2024/02/25 07:16:23;;;;;;;;;;;18.20;65.40;;;;;;5043103;28;1325;-69
2024/02/25 07:18:48;;;;;;;;;;;18.20;65.40;;;;;;5036006;28;1642;-70
2024/02/25 07:21:14;;;;;;;;;;;18.20;65.40;;;;;;5039924;28;1554;-70
2024/02/25 07:23:43;;;;;;;;;;;18.10;65.40;;;;;;5040143;28;1835;-68
2024/02/25 07:26:09;;;;;;;;;;;18.10;65.40;;;;;;5042189;28;1894;-69
2024/02/25 07:28:34;;;;;;;;;;;18.10;65.40;;;;;;5041363;28;1174;-69
2024/02/25 07:31:03;;;;;;;;;;;18.10;65.40;;;;;;5041670;28;1452;-69
2024/02/25 07:33:29;;;;;;;;;;;18.10;65.40;;;;;;5037905;28;1126;-68
2024/02/25 07:35:54;;;;;;;;;;;18.10;65.40;;;;;;5039129;28;1234;-69
2024/02/25 07:38:20;;;;;;;;;;;18.10;65.40;;;;;;5037355;28;1113;-69
2024/02/25 07:40:45;;;;;;;;;;;18.10;65.40;;;;;;5035293;28;1702;-69
2024/02/25 07:43:11;;;;;;;;;;;18.10;65.40;;;;;;5040947;28;1666;-68
2024/02/25 07:45:36;;;;;;;;;;;18.10;65.40;;;;;;5038086;28;1951;-70
2024/02/25 07:48:03;;;;;;;;;;;18.20;65.40;;;;;;5039431;28;1319;-69
2024/02/25 07:50:28;;;;;;;;;;;18.20;65.40;;;;;;5038710;28;1573;-69
2024/02/25 07:52:54;;;;;;;;;;;18.10;65.40;;;;;;5041159;28;1522;-69
2024/02/25 07:55:19;;;;;;;;;;;18.10;65.40;;;;;;5039508;28;1446;-70
2024/02/25 07:57:45;;;;;;;;;;;18.10;65.30;;;;;;5038400;28;1659;-71
2024/02/25 08:00:11;;;;;;;;;;;18.10;65.40;;;;;;5038444;28;2009;-71
2024/02/25 08:02:36;;;;;;;;;;;18.10;65.40;;;;;;5037768;28;1507;-71
2024/02/25 08:05:02;;;;;;;;;;;18.10;65.40;;;;;;5037991;28;2161;-72
2024/02/25 08:07:27;;;;;;;;;;;18.10;65.40;;;;;;5037693;28;1983;-71
2024/02/25 08:09:53;;;;;;;;;;;18.10;65.40;;;;;;5036684;28;1320;-71
2024/02/25 08:12:18;;;;;;;;;;;18.10;65.40;;;;;;5038799;28;1498;-71
2024/02/25 08:14:44;;;;;;;;;;;18.10;65.40;;;;;;5037492;28;1537;-71
2024/02/25 08:17:12;;;;;;;;;;;18.10;65.40;;;;;;5039795;28;1488;-71
2024/02/25 08:19:38;;;;;;;;;;;18.10;65.40;;;;;;5039711;28;1568;-72
2024/02/25 08:22:04;;;;;;;;;;;18.10;65.50;;;;;;5040733;28;1581;-71
2024/02/25 08:24:30;;;;;;;;;;;18.10;65.50;;;;;;5039132;28;1471;-71
2024/02/25 08:26:55;;;;;;;;;;;18.10;65.50;;;;;;5036702;28;1953;-71
2024/02/25 08:29:21;;;;;;;;;;;18.10;65.50;;;;;;5039737;28;1317;-71
2024/02/25 08:31:48;;;;;;;;;;;18.10;65.50;;;;;;5039017;28;1394;-72
2024/02/25 08:34:14;;;;;;;;;;;18.10;65.50;;;;;;5038427;28;1575;-71
2024/02/25 08:36:39;;;;;;;;;;;18.10;65.50;;;;;;5038445;28;1268;-71
2024/02/25 08:39:05;;;;;;;;;;;18.10;65.50;;;;;;5040301;28;1234;-72
2024/02/25 08:41:30;;;;;;;;;;;18.10;65.60;;;;;;5037844;28;1781;-71
2024/02/25 08:43:56;;;;;;;;;;;18.10;65.60;;;;;;5068798;28;1266;-71
2024/02/25 08:46:22;;;;;;;;;;;18.10;65.60;;;;;;5071543;28;1906;-71
2024/02/25 08:48:47;;;;;;;;;;;18.10;65.60;;;;;;5039284;28;1225;-71
2024/02/25 08:51:13;;;;;;;;;;;18.10;65.60;;;;;;5035668;28;1455;-71
2024/02/25 08:53:38;;;;;;;;;;;18.10;65.60;;;;;;5040108;28;1461;-71
2024/02/25 08:56:04;;;;;;;;;;;18.00;65.60;;;;;;5039573;28;1338;-71
2024/02/25 08:58:29;;;;;;;;;;;18.10;65.60;;;;;;5036553;28;1578;-72
2024/02/25 09:00:55;;;;;;;;;;;18.10;65.60;;;;;;5039044;28;1554;-72
2024/02/25 09:03:20;;;;;;;;;;;18.10;65.60;;;;;;5039569;28;1512;-71
2024/02/25 09:05:47;;;;;;;;;;;18.10;65.60;;;;;;5042474;28;1918;-71
2024/02/25 09:08:13;;;;;;;;;;;18.10;65.60;;;;;;5037861;28;1271;-71
2024/02/25 09:10:38;;;;;;;;;;;18.10;65.60;;;;;;5035706;28;1582;-71
2024/02/25 09:13:04;;;;;;;;;;;18.10;65.60;;;;;;5045611;28;1528;-71
2024/02/25 09:15:31;;;;;;;;;;;18.10;65.50;;;;;;5037930;28;1636;-72
2024/02/25 09:17:58;;;;;;;;;;;18.10;65.50;;;;;;5038388;28;1363;-72
2024/02/25 09:20:25;;;;;;;;;;;18.10;65.50;;;;;;5040685;28;1670;-72
2024/02/25 09:22:50;;;;;;;;;;;18.10;65.50;;;;;;5029843;28;1301;-71
2024/02/25 09:25:16;;;;;;;;;;;18.10;65.50;;;;;;5034841;28;1446;-71
2024/02/25 09:27:41;;;;;;;;;;;18.10;65.50;;;;;;5036794;28;1906;-71
2024/02/25 09:30:07;;;;;;;;;;;18.10;65.50;;;;;;5036693;28;1652;-71
2024/02/25 09:32:35;;;;;;;;;;;18.10;65.50;;;;;;5036745;28;1347;-72
2024/02/25 09:35:01;;;;;;;;;;;18.10;65.50;;;;;;5038819;28;1206;-71
2024/02/25 09:37:26;;;;;;;;;;;18.10;65.50;;;;;;5035912;28;1248;-71
2024/02/25 09:39:51;;;;;;;;;;;18.10;65.50;;;;;;5039009;28;1464;-71
2024/02/25 09:42:18;;;;;;;;;;;18.10;65.50;;;;;;5072162;28;1492;-72
2024/02/25 09:44:44;;;;;;;;;;;18.10;65.50;;;;;;5041533;28;1354;-71
2024/02/25 09:47:09;;;;;;;;;;;18.10;65.50;;;;;;5040798;28;1898;-71
2024/02/25 09:49:35;;;;;;;;;;;18.10;65.50;;;;;;5041438;28;1433;-71
2024/02/25 09:52:01;;;;;;;;;;;18.10;65.60;;;;;;5037503;28;1611;-71
2024/02/25 09:54:26;;;;;;;;;;;18.10;65.50;;;;;;5038684;28;1380;-71
2024/02/25 09:56:51;;;;;;;;;;;18.10;65.50;;;;;;5041661;28;1332;-71
2024/02/25 09:59:20;;;;;;;;;;;18.10;65.60;;;;;;5041449;28;1338;-71
2024/02/25 10:01:47;;;;;;;;;;;18.10;65.50;;;;;;5038514;28;2128;-71
2024/02/25 10:04:12;;;;;;;;;;;18.10;65.50;;;;;;5038755;28;1498;-71
2024/02/25 10:06:38;;;;;;;;;;;18.10;65.50;;;;;;5042405;28;1898;-71
2024/02/25 10:09:03;;;;;;;;;;;18.10;65.50;;;;;;5075725;28;1260;-72
2024/02/25 10:11:29;;;;;;;;;;;18.10;65.50;;;;;;5040761;28;1483;-72
2024/02/25 10:13:56;;;;;;;;;;;18.10;65.50;;;;;;5038885;28;1371;-71
2024/02/25 10:16:21;;;;;;;;;;;18.20;65.50;;;;;;5041604;28;1550;-71
2024/02/25 10:18:50;;;;;;;;;;;18.20;65.50;;;;;;5043258;28;1551;-71
2024/02/25 10:21:16;;;;;;;;;;;18.20;65.40;;;;;;5039942;28;1627;-71
2024/02/25 10:23:41;;;;;;;;;;;18.20;65.40;;;;;;5041973;28;1430;-72
2024/02/25 10:26:14;;;;;;;;;;;18.20;65.40;;;;;;5042239;28;1906;-71
2024/02/25 10:28:40;;;;;;;;;;;18.20;65.40;;;;;;5040191;28;1456;-71
2024/02/25 10:31:05;;;;;;;;;;;18.20;65.40;;;;;;5042959;28;1272;-71
2024/02/25 10:33:31;;;;;;;;;;;18.20;65.40;;;;;;5040878;28;1298;-71
2024/02/25 10:36:00;;;;;;;;;;;18.20;65.40;;;;;;5039885;28;1492;-71
2024/02/25 10:38:26;;;;;;;;;;;18.20;65.40;;;;;;5042182;28;1536;-71
2024/02/25 10:40:51;;;;;;;;;;;18.20;65.40;;;;;;5039058;28;2160;-69
2024/02/25 10:43:16;;;;;;;;;;;18.20;65.40;;;;;;5040883;28;1626;-70
2024/02/25 10:45:42;;;;;;;;;;;18.20;65.40;;;;;;5037822;28;1934;-70
2024/02/25 10:48:09;;;;;;;;;;;18.20;65.30;;;;;;5048022;28;1230;-70
2024/02/25 10:50:34;;;;;;;;;;;18.20;65.30;;;;;;5038548;28;1371;-69
2024/02/25 10:53:01;;;;;;;;;;;18.20;65.30;;;;;;5037868;28;1482;-69
2024/02/25 10:55:27;;;;;;;;;;;18.20;65.30;;;;;;5041344;28;1523;-71
2024/02/25 10:57:52;;;;;;;;;;;18.20;65.30;;;;;;5038266;28;1231;-70
2024/02/25 11:00:18;;;;;;;;;;;18.20;65.20;;;;;;5047584;28;1510;-70
2024/02/25 11:02:43;;;;;;;;;;;18.20;65.20;;;;;;5037641;28;1187;-72
2024/02/25 11:05:09;;;;;;;;;;;18.20;65.30;;;;;;5041787;28;1203;-71
2024/02/25 11:07:34;;;;;;;;;;;18.20;63.80;;;;;;5073000;28;1966;-70
2024/02/25 11:09:59;;;;;;;;;;;18.20;59.80;;;;;;5041354;28;1371;-70
2024/02/25 11:12:25;;;;;;;;;;;18.20;58.80;;;;;;5039868;28;1272;-70
2024/02/25 11:15:00;;;;;;;;;;;18.20;55.90;;;;;;5036574;28;1729;-70
2024/02/25 11:17:29;;;;;;;;;;;18.20;54.70;;;;;;5037600;28;1223;-70
2024/02/25 11:19:59;;;;;;;;;;;18.20;54.40;;;;;;5024628;28;1685;-70
2024/02/25 11:22:57;;;;;;;;;;;18.10;51.50;;;;;;5038745;28;1596;-70
2024/02/25 11:25:25;;;;;;;;;;;18.10;49.10;;;;;;5044535;28;1463;-70
2024/02/25 11:27:57;;;;;;;;;;;18.00;45.30;;;;;;5040319;28;1957;-71
2024/02/25 11:30:22;;;;;;;;;;;17.90;46.80;;;;;;5040450;28;1256;-70
2024/02/25 11:32:48;;;;;;;;;;;17.80;48.00;;;;;;5039258;28;1487;-71
2024/02/25 11:35:15;;;;;;;;;;;17.80;45.80;;;;;;5037056;28;1648;-70
2024/02/25 11:37:42;;;;;;;;;;;17.70;45.80;;;;;;5038692;28;1370;-71
2024/02/25 11:40:07;;;;;;;;;;;17.60;45.20;;;;;;5038106;28;1292;-71
2024/02/25 11:42:33;;;;;;;;;;;17.60;47.00;;;;;;5039318;28;1499;-71
2024/02/25 11:44:58;;;;;;;;;;;17.60;48.20;;;;;;5039773;28;1271;-71
2024/02/25 11:47:24;;;;;;;;;;;17.60;48.30;;;;;;5035006;28;2329;-72
2024/02/25 11:49:50;;;;;;;;;;;17.60;49.10;;;;;;5039729;28;1318;-70
2024/02/25 11:52:16;;;;;;;;;;;17.60;50.20;;;;;;5041279;28;1365;-70
2024/02/25 11:54:41;;;;;;;;;;;17.60;48.50;;;;;;5037512;28;1353;-70
2024/02/25 11:57:07;;;;;;;;;;;17.60;48.40;;;;;;5039885;28;1326;-69
2024/02/25 11:59:34;;;;;;;;;;;17.60;47.10;;;;;;5043235;28;1383;-70
2024/02/25 12:02:00;;;;;;;;;;;17.60;48.20;;;;;;5043421;28;1302;-69
2024/02/25 12:04:25;;;;;;;;;;;17.60;49.00;;;;;;5035325;28;1355;-69
2024/02/25 12:06:51;;;;;;;;;;;17.60;49.40;;;;;;5038775;28;1910;-69
2024/02/25 12:09:16;;;;;;;;;;;17.60;50.00;;;;;;5039533;28;1494;-70
2024/02/25 12:11:42;;;;;;;;;;;17.60;50.50;;;;;;5039146;28;1353;-69
2024/02/25 12:14:13;;;;;;;;;;;17.60;51.40;;;;;;5040687;28;1679;-68
2024/02/25 12:16:39;;;;;;;;;;;17.60;52.00;;;;;;5041025;28;1300;-68
2024/02/25 12:19:04;;;;;;;;;;;17.60;52.50;;;;;;5036065;28;1513;-69
2024/02/25 12:21:30;;;;;;;;;;;17.60;53.00;;;;;;5035099;28;1521;-68
2024/02/25 12:23:57;;;;;;;;;;;17.60;53.40;;;;;;5039915;28;1454;-68
2024/02/25 12:26:23;;;;;;;;;;;17.60;53.70;;;;;;5038250;28;1894;-70
2024/02/25 12:28:48;;;;;;;;;;;17.60;54.10;;;;;;5039583;28;1438;-69
2024/02/25 12:31:14;;;;;;;;;;;17.70;54.60;;;;;;5036454;28;1276;-69
2024/02/25 12:33:39;;;;;;;;;;;17.70;54.80;;;;;;5038595;28;1323;-69
2024/02/25 12:36:05;;;;;;;;;;;17.70;55.10;;;;;;5038847;28;1270;-70
2024/02/25 12:38:31;;;;;;;;;;;17.70;55.60;;;;;;5038790;28;1394;-69
2024/02/25 12:41:00;;;;;;;;;;;17.70;56.00;;;;;;5036300;28;2233;-69
2024/02/25 12:43:27;;;;;;;;;;;17.80;56.20;;;;;;5038484;28;1171;-69
2024/02/25 12:45:53;;;;;;;;;;;17.90;56.40;;;;;;5039367;28;1965;-68
2024/02/25 12:48:18;;;;;;;;;;;17.90;56.40;;;;;;5040787;28;1457;-69
2024/02/25 12:50:44;;;;;;;;;;;18.00;56.40;;;;;;5039453;28;1439;-69
2024/02/25 12:53:09;;;;;;;;;;;18.00;56.40;;;;;;5036539;28;1884;-69
2024/02/25 12:55:35;;;;;;;;;;;18.10;56.50;;;;;;5037589;28;1912;-69
2024/02/25 12:58:00;;;;;;;;;;;18.10;56.50;;;;;;5044860;28;1553;-69
2024/02/25 13:00:26;;;;;;;;;;;18.20;56.50;;;;;;5036490;28;1620;-69
2024/02/25 13:02:51;;;;;;;;;;;18.20;56.60;;;;;;5037021;28;1456;-69
2024/02/25 13:05:17;;;;;;;;;;;18.30;56.60;;;;;;5037640;28;1808;-69
2024/02/25 13:07:42;;;;;;;;;;;18.30;56.70;;;;;;5036513;28;1898;-69
2024/02/25 13:10:08;;;;;;;;;;;18.40;56.70;;;;;;5035726;28;1451;-69
2024/02/25 13:12:33;;;;;;;;;;;18.40;56.80;;;;;;5036112;28;1638;-69
2024/02/25 13:15:05;;;;;;;;;;;18.40;56.80;;;;;;5039568;28;1262;-69
2024/02/25 13:17:31;;;;;;;;;;;18.40;56.80;;;;;;5039773;28;1435;-69
2024/02/25 13:19:56;;;;;;;;;;;18.40;56.80;;;;;;5043159;28;1709;-69
2024/02/25 13:22:22;;;;;;;;;;;18.50;56.90;;;;;;5041705;28;1380;-69
2024/02/25 13:24:48;;;;;;;;;;;18.50;57.00;;;;;;5044071;28;1630;-69
2024/02/25 13:27:13;;;;;;;;;;;18.50;57.00;;;;;;5043947;28;1953;-69
2024/02/25 13:29:39;;;;;;;;;;;18.50;57.00;;;;;;5040528;28;1857;-69
2024/02/25 13:32:05;;;;;;;;;;;18.50;57.10;;;;;;5040173;28;1609;-69
2024/02/25 13:34:30;;;;;;;;;;;18.50;57.10;;;;;;5043061;28;1262;-69
2024/02/25 13:36:56;;;;;;;;;;;18.50;57.20;;;;;;5041731;28;1304;-69
2024/02/25 13:39:21;;;;;;;;;;;18.50;57.20;;;;;;5041145;28;1535;-69
2024/02/25 13:41:47;;;;;;;;;;;18.50;57.20;;;;;;5039469;28;1681;-69
2024/02/25 13:44:12;;;;;;;;;;;18.50;57.30;;;;;;5040929;28;1148;-69
2024/02/25 13:46:38;;;;;;;;;;;18.60;57.40;;;;;;5042006;28;1894;-69
2024/02/25 13:49:04;;;;;;;;;;;18.60;57.40;;;;;;5042472;28;1171;-71
2024/02/25 13:51:29;;;;;;;;;;;18.60;57.40;;;;;;5049198;28;1414;-71
2024/02/25 13:53:55;;;;;;;;;;;18.60;57.50;;;;;;5039710;28;1516;-70
2024/02/25 13:56:20;;;;;;;;;;;18.60;57.50;;;;;;5040344;28;935;-71
2024/02/25 13:58:46;;;;;;;;;;;18.60;57.50;;;;;;5041478;28;1262;-71
2024/02/25 14:01:12;;;;;;;;;;;18.60;57.50;;;;;;5042114;28;1409;-71
2024/02/25 14:03:38;;;;;;;;;;;18.60;57.60;;;;;;5038938;28;998;-70
2024/02/25 14:06:05;;;;;;;;;;;18.60;57.60;;;;;;5041557;28;1902;-69
2024/02/25 14:08:30;;;;;;;;;;;18.60;57.70;;;;;;5039995;28;864;-70
2024/02/25 14:10:55;;;;;;;;;;;18.50;57.70;;;;;;5041371;28;1280;-71
2024/02/25 14:13:21;;;;;;;;;;;18.50;57.80;;;;;;5039222;28;1275;-71
2024/02/25 14:15:46;;;;;;;;;;;18.50;57.80;;;;;;5039336;28;1490;-71
2024/02/25 14:18:13;;;;;;;;;;;18.50;57.90;;;;;;5041132;28;1238;-70
2024/02/25 14:20:38;;;;;;;;;;;18.50;58.00;;;;;;5042112;28;1506;-70
2024/02/25 14:23:07;;;;;;;;;;;18.50;58.00;;;;;;5039715;28;1374;-70